createdAt,value
2024-01-17T00:00:21.390Z,48
2024-01-17T00:02:51.695Z,49
2024-01-17T00:05:21.768Z,47
2024-01-17T00:07:51.952Z,45
2024-01-17T00:10:22.034Z,49
2024-01-17T00:12:52.508Z,44
2024-01-17T00:15:22.609Z,44
2024-01-17T00:17:52.698Z,44
2024-01-17T00:20:23.581Z,44
2024-01-17T00:22:53.760Z,44
2024-01-17T00:25:23.959Z,44
2024-01-17T00:27:54.006Z,40
2024-01-17T00:30:25.033Z,44
2024-01-17T00:32:55.385Z,44
2024-01-17T00:35:25.540Z,44
2024-01-17T00:37:55.855Z,50
2024-01-17T00:40:25.857Z,52
2024-01-17T00:42:55.885Z,46
2024-01-17T00:45:26.160Z,42
2024-01-17T00:47:56.978Z,42
2024-01-17T00:50:27.386Z,44
2024-01-17T00:52:57.735Z,44
2024-01-17T00:55:28.136Z,40
2024-01-17T00:57:58.190Z,46
2024-01-17T01:00:29.310Z,43
2024-01-17T01:02:59.829Z,41
2024-01-17T01:05:30.032Z,42
2024-01-17T01:08:00.283Z,48
2024-01-17T01:10:30.729Z,41
2024-01-17T01:13:00.875Z,43
2024-01-17T01:15:31.113Z,43
2024-01-17T01:18:01.393Z,44
2024-01-17T01:20:31.847Z,47
2024-01-17T01:23:02.480Z,47
2024-01-17T01:25:33.355Z,46
2024-01-17T01:28:03.921Z,40
2024-01-17T01:30:34.079Z,48
2024-01-17T01:33:04.844Z,44
2024-01-17T01:35:35.345Z,40
2024-01-17T01:38:05.782Z,45
2024-01-17T01:40:36.221Z,39
2024-01-17T01:43:06.709Z,41
2024-01-17T01:45:37.314Z,36
2024-01-17T01:48:07.617Z,42
2024-01-17T01:50:37.951Z,42
2024-01-17T01:53:08.419Z,44
2024-01-17T01:55:39.176Z,44
2024-01-17T01:58:09.425Z,44
2024-01-17T02:00:39.975Z,44
2024-01-17T02:03:10.741Z,40
2024-01-17T02:05:40.836Z,42
2024-01-17T02:08:11.157Z,40
2024-01-17T02:10:40.206Z,44
2024-01-17T02:13:10.602Z,48
2024-01-17T02:15:41.202Z,40
2024-01-17T02:18:11.232Z,40
2024-01-17T02:20:41.802Z,36
2024-01-17T02:23:12.403Z,43
2024-01-17T02:25:42.686Z,43
2024-01-17T02:28:13.075Z,36
2024-01-17T02:30:43.658Z,33
2024-01-17T02:33:14.576Z,39
2024-01-17T02:35:45.167Z,38
2024-01-17T02:38:15.624Z,40
2024-01-17T02:40:46.353Z,43
2024-01-17T02:43:16.675Z,39
2024-01-17T02:45:47.245Z,40
2024-01-17T02:48:17.679Z,40
2024-01-17T02:50:47.642Z,40
2024-01-17T02:53:17.980Z,39
2024-01-17T02:55:48.284Z,40
2024-01-17T02:58:18.979Z,44
2024-01-17T03:00:49.809Z,40
2024-01-17T03:03:20.461Z,40
2024-01-17T03:05:50.762Z,40
2024-01-17T03:08:21.207Z,40
2024-01-17T03:10:51.541Z,37
2024-01-17T03:13:21.644Z,39
2024-01-17T03:15:52.232Z,39
2024-01-17T03:18:22.613Z,39
2024-01-17T03:20:53.054Z,37
2024-01-17T03:23:23.431Z,36
2024-01-17T03:25:54.237Z,39
2024-01-17T03:28:24.590Z,36
2024-01-17T03:30:55.345Z,39
2024-01-17T03:33:25.892Z,36
2024-01-17T03:35:56.495Z,29
2024-01-17T03:38:27.164Z,31
2024-01-17T03:40:57.039Z,35
2024-01-17T03:43:27.351Z,39
2024-01-17T03:45:57.641Z,36
2024-01-17T03:48:28.274Z,39
2024-01-17T03:50:58.929Z,33
2024-01-17T03:53:29.342Z,32
2024-01-17T03:55:59.479Z,40
2024-01-17T03:58:31.495Z,36
2024-01-17T04:01:00.067Z,43
2024-01-17T04:03:30.282Z,38
2024-01-17T04:06:00.709Z,36
2024-01-17T04:08:30.620Z,36
2024-01-17T04:11:00.850Z,33
2024-01-17T04:13:31.261Z,32
2024-01-17T04:16:01.787Z,35
2024-01-17T04:18:32.154Z,37
2024-01-17T04:21:02.688Z,32
2024-01-17T04:23:33.131Z,38
2024-01-17T04:26:03.500Z,38
2024-01-17T04:28:33.783Z,37
2024-01-17T04:31:04.298Z,36
2024-01-17T04:33:34.756Z,41
2024-01-17T04:36:05.385Z,38
2024-01-17T04:38:35.159Z,40
2024-01-17T04:41:05.709Z,33
2024-01-17T04:43:36.133Z,33
2024-01-17T04:46:06.248Z,32
2024-01-17T04:48:36.478Z,28
2024-01-17T04:51:06.818Z,36
2024-01-17T04:53:37.273Z,32
2024-01-17T04:56:07.476Z,32
2024-01-17T04:58:37.665Z,28
2024-01-17T05:01:07.913Z,33
2024-01-17T05:03:38.207Z,28
2024-01-17T05:06:08.579Z,33
2024-01-17T05:08:38.988Z,28
2024-01-17T05:11:10.372Z,43
2024-01-17T05:13:40.849Z,30
2024-01-17T05:16:11.057Z,32
2024-01-17T05:18:41.390Z,28
2024-01-17T05:21:11.527Z,28
2024-01-17T05:23:42.211Z,31
2024-01-17T05:26:12.529Z,25
2024-01-17T05:28:42.738Z,28
2024-01-17T05:31:13.050Z,36
2024-01-17T05:33:43.505Z,33
2024-01-17T05:36:13.864Z,36
2024-01-17T05:38:43.914Z,36
2024-01-17T05:41:14.351Z,27
2024-01-17T05:43:44.447Z,25
2024-01-17T05:46:17.203Z,27
2024-01-17T05:48:45.250Z,28
2024-01-17T05:51:15.567Z,27
2024-01-17T05:53:46.152Z,32
2024-01-17T05:56:16.700Z,32
2024-01-17T05:58:47.009Z,27
2024-01-17T06:01:17.289Z,28
2024-01-17T06:03:47.737Z,28
2024-01-17T06:06:18.045Z,32
2024-01-17T06:08:47.409Z,32
2024-01-17T06:11:18.242Z,34
2024-01-17T06:13:48.498Z,34
2024-01-17T06:16:19.656Z,34
2024-01-17T06:18:52.225Z,36
2024-01-17T06:21:20.993Z,36
2024-01-17T06:23:51.272Z,36
2024-01-17T06:26:21.518Z,32
2024-01-17T06:28:52.069Z,32
2024-01-17T06:31:22.280Z,36
2024-01-17T06:33:52.788Z,36
2024-01-17T06:36:22.897Z,36
2024-01-17T06:38:53.221Z,38
2024-01-17T06:41:23.237Z,39
2024-01-17T06:43:53.471Z,36
2024-01-17T06:46:23.935Z,37
2024-01-17T06:48:54.683Z,39
2024-01-17T06:51:25.158Z,36
2024-01-17T06:53:55.514Z,40
2024-01-17T06:56:25.892Z,36
2024-01-17T06:58:56.080Z,36
2024-01-17T07:01:26.309Z,36
2024-01-17T07:03:56.529Z,38
2024-01-17T07:06:26.921Z,41
2024-01-17T07:08:57.181Z,38
2024-01-17T07:11:27.401Z,40
2024-01-17T07:13:56.127Z,40
2024-01-17T07:16:26.386Z,38
2024-01-17T07:18:56.910Z,36
2024-01-17T07:21:27.479Z,44
2024-01-17T07:23:57.818Z,39
2024-01-17T07:26:28.298Z,40
2024-01-17T07:28:58.653Z,40
2024-01-17T07:31:28.961Z,56
2024-01-17T07:33:59.339Z,60
2024-01-17T07:36:29.482Z,46
2024-01-17T07:38:59.944Z,47
2024-01-17T07:41:30.955Z,55
2024-01-17T07:44:01.030Z,49
2024-01-17T07:46:31.032Z,44
2024-01-17T07:49:01.611Z,40
2024-01-17T07:51:31.480Z,40
2024-01-17T07:54:01.589Z,40
2024-01-17T07:56:31.996Z,36
2024-01-17T07:59:01.863Z,35
2024-01-17T08:01:31.891Z,36
2024-01-17T08:04:02.593Z,28
2024-01-17T08:06:32.796Z,36
2024-01-17T08:09:03.603Z,28
2024-01-17T08:11:33.773Z,34
2024-01-17T08:14:03.835Z,32
2024-01-17T08:16:33.791Z,35
2024-01-17T08:19:03.931Z,28
2024-01-17T08:21:34.042Z,32
2024-01-17T08:24:04.285Z,32
2024-01-17T08:26:34.276Z,28
2024-01-17T08:29:04.239Z,40
2024-01-17T08:31:34.778Z,28
2024-01-17T08:34:05.279Z,28
2024-01-17T08:36:35.260Z,31
2024-01-17T08:39:05.842Z,33
2024-01-17T08:41:35.705Z,31
2024-01-17T08:44:04.843Z,36
2024-01-17T08:46:34.862Z,37
2024-01-17T08:49:05.074Z,36
2024-01-17T08:51:35.765Z,42
2024-01-17T08:54:06.722Z,33
2024-01-17T08:56:36.921Z,32
2024-01-17T08:59:07.787Z,28
2024-01-17T09:01:38.070Z,31
2024-01-17T09:04:08.142Z,30
2024-01-17T09:06:38.927Z,22
2024-01-17T09:09:09.492Z,31
2024-01-17T09:11:40.369Z,32
2024-01-17T09:14:10.434Z,31
2024-01-17T09:16:40.903Z,30
2024-01-17T09:19:11.833Z,28
2024-01-17T09:21:41.880Z,25
2024-01-17T09:24:12.612Z,25
2024-01-17T09:26:43.192Z,28
2024-01-17T09:29:13.916Z,36
2024-01-17T09:31:44.519Z,28
2024-01-17T09:36:44.625Z,32
2024-01-17T09:39:15.515Z,44
2024-01-17T09:41:45.695Z,36
2024-01-17T09:44:16.625Z,32
2024-01-17T09:46:47.515Z,28
2024-01-17T09:49:18.090Z,31
2024-01-17T09:51:48.401Z,31
2024-01-17T09:54:19.288Z,28
2024-01-17T09:56:50.277Z,33
2024-01-17T09:59:20.914Z,28
2024-01-17T10:01:51.387Z,32
2024-01-17T10:04:21.588Z,34
2024-01-17T10:06:52.019Z,29
2024-01-17T10:09:22.717Z,28
2024-01-17T10:11:54.850Z,24
2024-01-17T10:14:24.256Z,29
2024-01-17T10:16:54.588Z,35
2024-01-17T10:19:25.437Z,32
2024-01-17T10:21:55.996Z,34
2024-01-17T10:24:26.956Z,31
2024-01-17T10:26:57.640Z,24
2024-01-17T10:29:27.803Z,35
2024-01-17T10:31:58.273Z,28
2024-01-17T10:34:29.168Z,31
2024-01-17T10:36:59.971Z,36
2024-01-17T10:39:30.513Z,25
2024-01-17T10:42:01.291Z,27
2024-01-17T10:44:31.209Z,28
2024-01-17T10:47:01.270Z,24
2024-01-17T10:49:31.725Z,25
2024-01-17T10:52:01.952Z,32
2024-01-17T10:54:32.642Z,36
2024-01-17T10:57:03.279Z,36
2024-01-17T10:59:33.531Z,36
2024-01-17T11:02:03.922Z,42
2024-01-17T11:04:34.142Z,39
2024-01-17T11:07:04.208Z,36
2024-01-17T11:09:34.446Z,36
2024-01-17T11:12:04.584Z,32
2024-01-17T11:14:34.994Z,33
2024-01-17T11:17:05.393Z,39
2024-01-17T11:19:35.585Z,40
2024-01-17T11:22:05.481Z,31
2024-01-17T11:24:35.985Z,35
2024-01-17T11:27:06.255Z,36
2024-01-17T11:29:36.388Z,40
2024-01-17T11:32:06.131Z,42
2024-01-17T11:34:36.281Z,32
2024-01-17T11:37:06.281Z,36
2024-01-17T11:39:36.264Z,28
2024-01-17T11:42:06.371Z,28
2024-01-17T11:44:36.635Z,40
2024-01-17T11:47:06.525Z,24
2024-01-17T11:49:36.776Z,31
2024-01-17T11:52:07.138Z,36
2024-01-17T11:54:37.379Z,36
2024-01-17T11:57:07.559Z,35
2024-01-17T11:59:37.514Z,37
2024-01-17T12:02:07.698Z,29
2024-01-17T12:04:37.785Z,28
2024-01-17T12:07:07.827Z,30
2024-01-17T12:09:37.914Z,25
2024-01-17T12:12:08.086Z,24
2024-01-17T12:14:38.196Z,24
2024-01-17T12:17:08.091Z,27
2024-01-17T12:19:38.163Z,34
2024-01-17T12:22:08.328Z,28
2024-01-17T12:24:43.236Z,27
2024-01-17T12:27:08.534Z,28
2024-01-17T12:29:38.674Z,25
2024-01-17T12:32:12.633Z,28
2024-01-17T12:34:42.581Z,28
2024-01-17T12:37:12.581Z,27
2024-01-17T12:39:42.532Z,29
2024-01-17T12:42:12.615Z,24
2024-01-17T12:44:42.600Z,25
2024-01-17T12:47:12.540Z,30
2024-01-17T12:49:42.468Z,37
2024-01-17T12:52:12.510Z,28
2024-01-17T12:54:42.377Z,32
2024-01-17T12:57:12.430Z,31
2024-01-17T12:59:42.542Z,25
2024-01-17T13:02:12.424Z,28
2024-01-17T13:04:42.458Z,31
2024-01-17T13:07:13.651Z,28
2024-01-17T13:09:42.568Z,36
2024-01-17T13:12:12.668Z,34
2024-01-17T13:14:46.286Z,36
2024-01-17T13:17:16.122Z,32
2024-01-17T13:19:46.219Z,32
2024-01-17T13:22:19.589Z,40
2024-01-17T13:24:49.646Z,36
2024-01-17T13:27:19.796Z,36
2024-01-17T13:29:49.767Z,36
2024-01-17T13:32:19.993Z,39
2024-01-17T13:34:49.787Z,35
2024-01-17T13:37:19.631Z,40
2024-01-17T13:39:49.774Z,29
2024-01-17T13:42:19.756Z,36
2024-01-17T13:44:50.158Z,28
2024-01-17T13:47:20.209Z,36
2024-01-17T13:49:50.344Z,36
2024-01-17T13:52:20.184Z,32
2024-01-17T13:54:53.717Z,31
2024-01-17T13:57:23.762Z,38
2024-01-17T13:59:53.691Z,40
2024-01-17T14:02:23.746Z,40
2024-01-17T14:04:54.688Z,36
2024-01-17T14:07:26.027Z,32
2024-01-17T14:09:56.579Z,32
2024-01-17T14:12:27.048Z,34
2024-01-17T14:14:58.347Z,32
2024-01-17T14:17:28.501Z,31
2024-01-17T14:19:58.554Z,32
2024-01-17T14:22:28.409Z,34
2024-01-17T14:24:58.738Z,32
2024-01-17T14:27:28.983Z,32
2024-01-17T14:29:59.268Z,37
2024-01-17T14:32:29.573Z,40
2024-01-17T14:34:59.746Z,36
2024-01-17T14:37:30.114Z,40
2024-01-17T14:40:00.065Z,45
2024-01-17T14:42:30.299Z,48
2024-01-17T14:45:00.539Z,48
2024-01-17T14:47:30.242Z,48
2024-01-17T14:50:00.601Z,46
2024-01-17T14:52:30.477Z,28
2024-01-17T14:55:00.859Z,52
2024-01-17T14:57:30.828Z,39
2024-01-17T15:00:01.099Z,32
2024-01-17T15:02:31.190Z,40
2024-01-17T15:05:01.727Z,32
2024-01-17T15:07:32.175Z,39
2024-01-17T15:10:02.700Z,36
2024-01-17T15:12:33.029Z,38
2024-01-17T15:15:03.269Z,48
2024-01-17T15:17:33.480Z,56
2024-01-17T15:20:03.596Z,38
2024-01-17T15:22:33.591Z,40
2024-01-17T15:25:04.792Z,41
2024-01-17T15:27:33.848Z,40
2024-01-17T15:30:03.923Z,36
2024-01-17T15:32:34.766Z,38
2024-01-17T15:35:04.871Z,39
2024-01-17T15:37:34.823Z,40
2024-01-17T15:40:04.826Z,40
2024-01-17T15:42:34.816Z,32
2024-01-17T15:45:05.040Z,36
2024-01-17T15:47:35.354Z,44
2024-01-17T15:50:05.389Z,40
2024-01-17T15:52:35.225Z,42
2024-01-17T15:55:05.723Z,36
2024-01-17T15:57:35.916Z,36
2024-01-17T16:00:06.039Z,51
2024-01-17T16:02:36.507Z,40
2024-01-17T16:05:06.206Z,40
2024-01-17T16:07:36.530Z,36
2024-01-17T16:10:06.463Z,44
2024-01-17T16:12:36.615Z,55
2024-01-17T16:15:10.373Z,36
2024-01-17T16:17:36.919Z,44
2024-01-17T16:20:07.077Z,44
2024-01-17T16:22:37.406Z,45
2024-01-17T16:25:07.413Z,44
2024-01-17T16:27:37.625Z,45
2024-01-17T16:30:07.865Z,44
2024-01-17T16:32:38.671Z,37
2024-01-17T16:35:08.617Z,40
2024-01-17T16:37:39.085Z,40
2024-01-17T16:40:08.982Z,40
2024-01-17T16:42:39.071Z,48
2024-01-17T16:45:09.117Z,43
2024-01-17T16:47:39.195Z,44
2024-01-17T16:50:09.398Z,40
2024-01-17T16:52:39.445Z,40
2024-01-17T16:55:09.718Z,41
2024-01-17T16:57:39.554Z,40
2024-01-17T17:00:09.534Z,44
2024-01-17T17:02:39.780Z,50
2024-01-17T17:05:09.788Z,40
2024-01-17T17:07:39.675Z,45
2024-01-17T17:10:09.986Z,44
2024-01-17T17:12:39.934Z,43
2024-01-17T17:15:09.922Z,48
2024-01-17T17:17:39.930Z,36
2024-01-17T17:20:10.286Z,36
2024-01-17T17:22:40.407Z,40
2024-01-17T17:25:10.725Z,35
2024-01-17T17:27:40.955Z,40
2024-01-17T17:30:11.053Z,37
2024-01-17T17:32:41.153Z,36
2024-01-17T17:35:11.039Z,47
2024-01-17T17:37:40.993Z,36
2024-01-17T17:40:10.985Z,40
2024-01-17T17:42:41.002Z,40
2024-01-17T17:45:11.056Z,44
2024-01-17T17:47:41.209Z,44
2024-01-17T17:50:11.130Z,41
2024-01-17T17:52:40.994Z,43
2024-01-17T17:55:11.228Z,40
2024-01-17T17:57:41.422Z,40
2024-01-17T18:00:11.442Z,40
2024-01-17T18:02:41.468Z,39
2024-01-17T18:05:11.399Z,36
2024-01-17T18:07:41.568Z,41
2024-01-17T18:10:11.660Z,36
2024-01-17T18:12:41.582Z,40
2024-01-17T18:15:11.768Z,41
2024-01-17T18:17:42.172Z,40
2024-01-17T18:20:12.129Z,36
2024-01-17T18:22:42.204Z,39
2024-01-17T18:25:12.216Z,40
2024-01-17T18:27:42.496Z,41
2024-01-17T18:30:12.384Z,48
2024-01-17T18:32:42.699Z,45
2024-01-17T18:35:12.829Z,45
2024-01-17T18:37:42.869Z,48
2024-01-17T18:40:13.033Z,44
2024-01-17T18:42:43.033Z,48
2024-01-17T18:45:13.153Z,44
2024-01-17T18:47:43.249Z,50
2024-01-17T18:50:13.256Z,48
2024-01-17T18:52:43.329Z,44
2024-01-17T18:55:13.429Z,44
2024-01-17T18:57:43.108Z,47
2024-01-17T19:00:13.187Z,44
2024-01-17T19:02:46.710Z,47
2024-01-17T19:05:16.533Z,44
2024-01-17T19:07:46.569Z,42
2024-01-17T19:10:16.673Z,42
2024-01-17T19:12:45.302Z,45
2024-01-17T19:15:15.450Z,46
2024-01-17T19:17:45.835Z,44
2024-01-17T19:20:15.818Z,44
2024-01-17T19:22:45.781Z,44
2024-01-17T19:25:15.805Z,44
2024-01-17T19:27:46.181Z,44
2024-01-17T19:30:16.021Z,44
2024-01-17T19:32:46.228Z,48
2024-01-17T19:35:16.117Z,44
2024-01-17T19:37:46.188Z,43
2024-01-17T19:40:16.358Z,48
2024-01-17T19:42:46.331Z,49
2024-01-17T19:45:16.289Z,48
2024-01-17T19:47:46.217Z,48
2024-01-17T19:50:16.079Z,45
2024-01-17T19:52:46.115Z,40
2024-01-17T19:55:17.852Z,48
2024-01-17T19:57:46.584Z,44
2024-01-17T20:00:16.528Z,43
2024-01-17T20:02:47.907Z,44
2024-01-17T20:05:17.867Z,46
2024-01-17T20:07:47.818Z,48
2024-01-17T20:10:17.755Z,44
2024-01-17T20:12:47.910Z,45
2024-01-17T20:15:17.943Z,48
2024-01-17T20:17:48.042Z,40
2024-01-17T20:20:18.188Z,44
2024-01-17T20:22:48.181Z,45
2024-01-17T20:25:18.092Z,47
2024-01-17T20:27:48.295Z,50
2024-01-17T20:30:18.562Z,42
2024-01-17T20:32:48.901Z,41
2024-01-17T20:35:18.295Z,46
2024-01-17T20:37:48.375Z,44
2024-01-17T20:40:18.363Z,41
2024-01-17T20:42:48.625Z,44
2024-01-17T20:45:18.593Z,49
2024-01-17T20:47:48.948Z,44
2024-01-17T20:50:19.033Z,48
2024-01-17T20:52:49.118Z,47
2024-01-17T20:55:19.999Z,51
2024-01-17T20:57:50.126Z,44
2024-01-17T21:00:20.457Z,46
2024-01-17T21:02:50.438Z,46
2024-01-17T21:05:20.537Z,49
2024-01-17T21:07:50.357Z,40
2024-01-17T21:10:20.245Z,44
2024-01-17T21:12:50.369Z,44
2024-01-17T21:15:20.518Z,44
2024-01-17T21:17:50.589Z,43
2024-01-17T21:20:20.877Z,44
2024-01-17T21:25:21.533Z,40
2024-01-17T21:27:51.655Z,44
2024-01-17T21:30:21.686Z,48
2024-01-17T21:32:51.947Z,48
2024-01-17T21:35:22.141Z,44
2024-01-17T21:37:51.968Z,44
2024-01-17T21:40:22.628Z,41
2024-01-17T21:42:52.578Z,43
2024-01-17T21:45:22.989Z,44
2024-01-17T21:47:52.941Z,40
2024-01-17T21:50:23.138Z,43
2024-01-17T21:52:53.223Z,41
2024-01-17T21:55:24.173Z,44
2024-01-17T21:57:54.311Z,44
2024-01-17T22:00:25.465Z,39
2024-01-17T22:02:56.074Z,43
2024-01-17T22:05:26.593Z,40
2024-01-17T22:07:56.723Z,40
2024-01-17T22:10:26.790Z,49
2024-01-17T22:12:57.044Z,44
2024-01-17T22:15:27.691Z,36
2024-01-17T22:17:57.559Z,36
2024-01-17T22:20:27.462Z,32
2024-01-17T22:22:57.750Z,32
2024-01-17T22:25:28.000Z,36
2024-01-17T22:27:58.093Z,32
2024-01-17T22:30:28.492Z,36
2024-01-17T22:32:58.493Z,36
2024-01-17T22:35:28.763Z,35
2024-01-17T22:37:58.928Z,38
2024-01-17T22:40:28.963Z,33
2024-01-17T22:42:58.911Z,35
2024-01-17T22:45:29.130Z,30
2024-01-17T22:47:59.748Z,33
2024-01-17T22:50:29.525Z,32
2024-01-17T22:53:02.576Z,25
2024-01-17T22:55:29.878Z,40
2024-01-17T22:58:00.199Z,36
2024-01-17T23:00:30.609Z,33
2024-01-17T23:03:00.858Z,32
2024-01-17T23:05:31.050Z,60
2024-01-17T23:08:05.095Z,33
2024-01-17T23:10:31.874Z,32
2024-01-17T23:13:02.332Z,35
2024-01-17T23:15:32.620Z,32
2024-01-17T23:18:02.630Z,28
2024-01-17T23:20:32.791Z,28
2024-01-17T23:23:02.964Z,34
2024-01-17T23:25:33.387Z,28
2024-01-17T23:28:03.750Z,29
2024-01-17T23:30:34.047Z,31
2024-01-17T23:33:04.801Z,32
2024-01-17T23:35:35.098Z,32
2024-01-17T23:38:05.228Z,31
2024-01-17T23:40:35.268Z,29
2024-01-17T23:43:05.862Z,32
2024-01-17T23:45:36.278Z,25
2024-01-17T23:48:06.948Z,27
2024-01-17T23:50:37.310Z,24
2024-01-17T23:53:07.804Z,32
2024-01-17T23:55:38.081Z,28
2024-01-17T23:58:08.346Z,24
